createdAt,value
2017-06-09T14:50:13.990Z,33.10
2017-06-09T14:52:41.924Z,32.90
2017-06-09T14:55:09.910Z,32.80
2017-06-09T14:57:37.795Z,33.10
2017-06-09T15:00:05.375Z,33.20
2017-06-09T15:02:33.025Z,33.50
2017-06-09T15:05:01.404Z,33.40
2017-06-09T15:07:28.923Z,33.00
2017-06-09T15:09:56.494Z,33.20
2017-06-09T15:12:24.242Z,33.30
2017-06-09T15:14:51.751Z,33.50
2017-06-09T15:17:19.352Z,33.50
2017-06-09T15:19:48.643Z,34.10
2017-06-09T15:22:16.976Z,34.30
2017-06-09T15:24:44.488Z,34.20
2017-06-09T15:27:12.793Z,34.80
2017-06-09T15:29:40.383Z,34.80
2017-06-09T15:32:07.969Z,34.50
2017-06-09T15:34:35.558Z,34.40
2017-06-09T15:37:03.120Z,34.10
2017-06-09T15:39:30.739Z,34.00
2017-06-09T15:41:58.470Z,33.80
2017-06-09T15:44:26.340Z,33.30
2017-06-09T15:46:53.854Z,33.20
2017-06-09T15:49:21.383Z,33.50
2017-06-09T15:51:48.915Z,33.50
2017-06-09T15:54:16.427Z,33.80
2017-06-09T15:56:44.010Z,33.90
2017-06-09T15:59:11.564Z,34.20
2017-06-09T16:01:39.845Z,34.20
2017-06-09T16:04:07.436Z,34.10
2017-06-09T16:06:35.038Z,33.30
2017-06-09T16:09:02.568Z,32.90
2017-06-09T16:11:30.090Z,32.70
2017-06-09T16:13:57.640Z,32.40
2017-06-09T16:16:25.162Z,32.10
2017-06-09T16:18:52.681Z,31.90
2017-06-09T16:21:20.250Z,31.50
2017-06-09T16:23:47.774Z,31.20
2017-06-09T16:26:15.512Z,31.00
2017-06-09T16:28:43.067Z,30.80
2017-06-09T16:31:10.603Z,30.60
2017-06-09T16:33:38.179Z,30.40
2017-06-09T16:36:05.692Z,30.40
2017-06-09T16:38:33.209Z,30.30
2017-06-09T16:41:00.795Z,30.10
2017-06-09T16:43:28.323Z,30.00
2017-06-09T16:45:55.831Z,30.00
2017-06-09T16:48:23.374Z,29.90
2017-06-09T16:50:50.928Z,29.70
2017-06-09T16:53:19.247Z,29.50
2017-06-09T16:55:46.759Z,29.50
2017-06-09T16:58:15.080Z,29.30
2017-06-09T17:00:42.594Z,29.20
2017-06-09T17:03:10.108Z,29.10
2017-06-09T17:05:37.657Z,29.10
2017-06-09T17:08:05.183Z,29.10
2017-06-09T17:10:32.715Z,29.00
2017-06-09T17:13:00.343Z,28.80
2017-06-09T17:15:27.891Z,28.70
2017-06-09T17:17:55.404Z,28.50
2017-06-09T17:20:22.970Z,28.40
2017-06-09T17:22:50.568Z,28.20
2017-06-09T17:25:18.079Z,27.30
2017-06-09T17:27:45.806Z,26.40
2017-06-09T17:30:13.467Z,25.90
2017-06-09T17:32:40.977Z,25.60
2017-06-09T17:35:09.518Z,25.30
2017-06-09T17:37:37.045Z,25.30
2017-06-09T17:40:04.556Z,25.00
2017-06-09T17:42:32.102Z,24.50
2017-06-09T17:44:59.619Z,24.00
2017-06-09T17:47:27.445Z,23.40
2017-06-09T17:49:54.973Z,23.00
2017-06-09T17:52:22.532Z,22.40
2017-06-09T17:54:50.093Z,21.90
2017-06-09T17:57:17.611Z,21.80
2017-06-09T17:59:46.141Z,21.30
2017-06-09T18:02:13.794Z,21.30
2017-06-09T18:04:41.349Z,21.00
2017-06-09T18:07:08.900Z,20.90
2017-06-09T18:09:36.442Z,20.80
2017-06-09T18:12:03.992Z,20.70
2017-06-09T18:14:31.514Z,20.70
2017-06-09T18:16:59.048Z,20.60
2017-06-09T18:19:26.581Z,20.20
2017-06-09T18:21:54.140Z,19.80
2017-06-09T18:24:21.689Z,19.50
2017-06-09T18:26:49.273Z,19.40
2017-06-09T18:29:16.793Z,19.40
2017-06-09T18:31:44.305Z,19.30
2017-06-09T18:34:11.856Z,19.30
2017-06-09T18:36:39.375Z,19.20
2017-06-09T18:39:07.177Z,18.70
2017-06-09T18:41:34.801Z,18.60
2017-06-09T18:44:02.338Z,18.60
2017-06-09T18:46:29.981Z,18.50
2017-06-09T18:48:57.486Z,18.50
2017-06-09T18:51:25.063Z,18.40
2017-06-09T18:53:53.396Z,18.30
2017-06-09T18:56:20.903Z,18.30
2017-06-09T18:58:48.446Z,17.80
2017-06-09T19:01:16.322Z,17.50
2017-06-09T19:03:44.047Z,17.30
2017-06-09T19:06:11.553Z,17.00
2017-06-09T19:08:39.131Z,16.90
2017-06-09T19:11:06.653Z,17.00
2017-06-09T19:13:35.011Z,17.00
2017-06-09T19:16:02.549Z,16.90
2017-06-09T19:18:30.075Z,16.90
2017-06-09T19:20:58.338Z,16.80
2017-06-09T19:23:25.937Z,16.80
2017-06-09T19:25:53.623Z,16.80
2017-06-09T19:28:21.667Z,16.80
2017-06-09T19:30:49.184Z,16.80
2017-06-09T19:33:17.510Z,16.80
2017-06-09T19:35:45.279Z,16.80
2017-06-09T19:38:12.782Z,16.70
2017-06-09T19:40:41.082Z,16.70
2017-06-09T19:43:08.622Z,16.70
2017-06-09T19:45:37.844Z,16.70
2017-06-09T19:48:06.396Z,16.70
2017-06-09T19:50:33.906Z,16.70
2017-06-09T19:53:01.465Z,16.70
2017-06-09T19:55:29.076Z,16.70
2017-06-09T19:57:57.402Z,16.50
2017-06-09T20:00:25.178Z,16.40
2017-06-09T20:02:52.732Z,16.40
2017-06-09T20:05:20.247Z,16.30
2017-06-09T20:07:48.528Z,16.00
2017-06-09T20:10:16.331Z,16.00
2017-06-09T20:12:45.220Z,15.90
2017-06-09T20:15:12.881Z,15.90
2017-06-09T20:17:40.391Z,15.70
2017-06-09T20:20:07.957Z,15.70
2017-06-09T20:22:36.239Z,15.60
2017-06-09T20:25:04.506Z,15.60
2017-06-09T20:27:32.832Z,15.60
2017-06-09T20:30:00.379Z,15.60
2017-06-09T20:32:27.890Z,15.60
2017-06-09T20:34:55.417Z,15.60
2017-06-09T20:37:22.984Z,15.60
2017-06-09T20:39:50.497Z,15.60
2017-06-09T20:42:17.998Z,15.60
2017-06-09T20:44:45.782Z,15.50
2017-06-09T20:47:13.280Z,15.50
2017-06-09T20:49:41.086Z,15.50
2017-06-09T20:52:08.586Z,15.40
2017-06-09T20:54:36.112Z,15.40
2017-06-09T20:57:03.663Z,15.40
2017-06-09T20:59:31.176Z,15.30
2017-06-09T21:01:58.732Z,15.30
2017-06-09T21:04:27.013Z,15.20
2017-06-09T21:06:55.324Z,15.20
2017-06-09T21:09:22.830Z,15.20
2017-06-09T21:11:50.383Z,15.20
2017-06-09T21:14:17.891Z,15.30
2017-06-09T21:16:45.422Z,15.30
2017-06-09T21:19:13.694Z,15.20
2017-06-09T21:21:42.036Z,15.20
2017-06-09T21:24:09.542Z,15.20
2017-06-09T21:26:37.896Z,15.10
2017-06-09T21:29:06.328Z,15.10
2017-06-09T21:31:34.948Z,15.10
2017-06-09T21:34:02.501Z,15.10
2017-06-09T21:36:30.043Z,15.10
2017-06-09T21:38:57.582Z,15.10
2017-06-09T21:41:25.100Z,15.10
2017-06-09T21:43:53.398Z,15.10
2017-06-09T21:46:21.667Z,15.00
2017-06-09T21:48:49.955Z,14.90
2017-06-09T21:51:18.312Z,14.90
2017-06-09T21:53:45.852Z,14.90
2017-06-09T21:56:13.396Z,14.90
2017-06-09T21:58:40.903Z,15.00
2017-06-09T22:01:09.209Z,14.90
2017-06-09T22:03:36.763Z,14.90
2017-06-09T22:06:04.338Z,14.90
2017-06-09T22:08:31.848Z,14.90
2017-06-09T22:10:59.378Z,15.00
2017-06-09T22:13:26.891Z,15.00
2017-06-09T22:15:54.441Z,14.90
2017-06-09T22:18:22.758Z,14.80
2017-06-09T22:20:50.323Z,14.70
2017-06-09T22:23:17.922Z,14.70
2017-06-09T22:25:45.491Z,14.70
2017-06-09T22:28:13.808Z,14.70
2017-06-09T22:30:41.310Z,14.60
2017-06-09T22:33:08.857Z,14.70
2017-06-09T22:35:36.365Z,14.70
2017-06-09T22:38:03.924Z,14.70
2017-06-09T22:40:32.686Z,14.70
2017-06-09T22:43:02.242Z,14.60
2017-06-09T22:45:29.753Z,14.60
2017-06-09T22:47:57.250Z,14.70
2017-06-09T22:50:24.789Z,14.60
2017-06-09T22:52:53.156Z,14.70
2017-06-09T22:55:21.467Z,14.70
2017-06-09T22:57:49.043Z,14.70
2017-06-09T23:00:16.781Z,14.80
2017-06-09T23:02:44.279Z,14.80
2017-06-09T23:05:13.047Z,14.90
2017-06-09T23:07:40.599Z,14.90
2017-06-09T23:10:08.217Z,14.90
2017-06-09T23:12:35.743Z,14.90
2017-06-09T23:15:03.387Z,14.90
2017-06-09T23:17:30.900Z,14.90
2017-06-09T23:19:58.436Z,14.90
2017-06-09T23:22:25.984Z,14.90
2017-06-09T23:24:53.477Z,15.00
2017-06-09T23:27:21.015Z,15.00
2017-06-09T23:29:54.189Z,15.00
2017-06-09T23:32:22.062Z,15.10
2017-06-09T23:34:49.599Z,15.10
2017-06-09T23:37:17.116Z,15.20
2017-06-09T23:39:45.428Z,15.30
2017-06-09T23:42:12.951Z,15.20
2017-06-09T23:44:41.255Z,15.20
2017-06-09T23:47:08.763Z,15.20
2017-06-09T23:49:37.334Z,15.30
2017-06-09T23:52:04.851Z,15.20
2017-06-09T23:54:32.365Z,15.20
2017-06-09T23:57:00.002Z,15.10
2017-06-09T23:59:27.506Z,15.20
